Aviation Digital Data Service (ADDS)

Output produced by METARs form (1707 UTC 24 April 2017)
found at http://www.aviationweather.gov/adds/metars/
 
DTTA 241700Z 11012G22KT 080V140 9999 FEW026 19/10 Q1015 NOSIG
TAF DTTA 241100Z 2412/2512 11010KT 9999 FEW026 
     PROB30 
     TEMPO 2421/2504 12015G25KT
       
DTTR 241600Z 05019KT 4000 SA SCT033 30/04 Q1009
TAF DTTR 241540Z 2416/2501 09017KT 4000 SA SCT033
       
DTTG 241700Z 07015KT 8000 FEW030 20/12 Q1014 NOSIG
TAF DTTG 241540Z 2416/2501 08015KT 8000 FEW020
       
DTTF 241700Z 08012KT CAVOK 25/01 Q1012 NOSIG
TAF DTTF 241540Z 2416/2501 07012KT CAVOK 
     PROB40 
     TEMPO 2417/2423 09017G27KT 4000 SA
       
DTMB 241700Z 07014KT CAVOK 19/14 Q1016 NOSIG
TAF DTMB 241100Z 2412/2512 17002KT 6000 NSC 
     PROB40 
     TEMPO 2415/2417 12017G27KT
       
DTTZ 241700Z 08020KT CAVOK 26/04 Q1012 NOSIG
TAF DTTZ 241100Z 2412/2512 09010KT CAVOK PRB40 
     TEMPO 2422/2508 09018G28KT
       
DTTD 241700Z 11008KT 050V160 5000 FEW026 26/01 Q1012
DTTB 241600Z 10019KT CAVOK 22/11 Q1014
TAF DTTB 241540Z 2416/2501 11014KT 9999 FEW020 
     PROB40 
     TEMPO 2416/2423 11020KT
       
DTKA 241700Z 29004KT 9999 FEW020 21/10 Q1014 NOSIG
TAF DTKA 241540Z 2416/2501 29008KT 9999 FEW020
       
DTTX 241700Z 05010KT 9999 FEW020 19/14 Q1015 NOSIG
TAF DTTX 241540Z 2416/2501 07012KT 9999 FEW020
       
DTTJ 241700Z 05013KT 8000 NSC 19/14 Q1014 NOSIG
TAF DTTJ 241100Z 2412/2512 04012KT 8000 NSC 
     PROB30 
     TEMPO 2422/2502 09017G27KT